Time;durP1;ratioP1;P1;durP2;ratioP2;P2;SDS_P1;SDS_P2;PMS_P1;PMS_P2;Temp;Humidity;BMP_temperature;BMP_pressure;BME280_temperature;BME280_humidity;BME280_pressure;Samples;Min_cycle;Max_cycle;Signal;HPM_P1;HPM_P2
2021/12/11 00:00:17;;;;;;;2.85;1.30;;;24.60;56.70;;;;;;5097159;28;20044;-71
2021/12/11 00:02:53;;;;;;;3.15;1.30;;;24.60;56.70;;;;;;5097035;28;20500;-71
2021/12/11 00:05:20;;;;;;;5.07;1.67;;;24.60;56.70;;;;;;5096815;28;20045;-71
2021/12/11 00:07:46;;;;;;;2.67;1.30;;;24.60;56.60;;;;;;5096768;28;20108;-71
2021/12/11 00:10:18;;;;;;;2.20;1.52;;;24.70;56.70;;;;;;5096823;28;20048;-71
2021/12/11 00:12:49;;;;;;;2.13;1.75;;;24.60;56.70;;;;;;5096705;28;20049;-71
2021/12/11 00:15:26;;;;;;;3.28;1.10;;;24.60;56.80;;;;;;5096374;28;20066;-71
2021/12/11 00:18:01;;;;;;;3.33;1.52;;;24.50;57.00;;;;;;5096547;28;20040;-70
2021/12/11 00:20:32;;;;;;;1.55;1.05;;;24.50;57.00;;;;;;5095991;28;20040;-71
2021/12/11 00:23:00;;;;;;;1.98;1.77;;;24.50;57.00;;;;;;5096841;28;20107;-70
2021/12/11 00:25:27;;;;;;;3.45;1.10;;;24.40;56.90;;;;;;5095946;28;20048;-70
2021/12/11 00:28:03;;;;;;;3.10;1.35;;;24.40;57.00;;;;;;5096281;28;20103;-70
2021/12/11 00:30:33;;;;;;;1.30;1.17;;;24.40;57.00;;;;;;5096732;28;20036;-71
2021/12/11 00:33:03;;;;;;;1.88;1.02;;;24.40;56.90;;;;;;5096563;28;20040;-71
2021/12/11 00:35:31;;;;;;;2.20;1.00;;;24.30;57.10;;;;;;5096671;28;20037;-70
2021/12/11 00:38:03;;;;;;;2.00;1.00;;;24.30;57.20;;;;;;5096449;28;20041;-70
2021/12/11 00:40:29;;;;;;;1.73;0.87;;;24.40;57.20;;;;;;5096593;28;20100;-71
2021/12/11 00:42:58;;;;;;;1.80;0.90;;;24.40;57.20;;;;;;5092406;28;20059;-70
2021/12/11 00:45:29;;;;;;;1.38;0.85;;;24.40;57.20;;;;;;5096458;28;20086;-70
2021/12/11 00:48:02;;;;;;;2.08;0.55;;;24.20;57.20;;;;;;5096348;28;20036;-70
2021/12/11 00:50:33;;;;;;;1.10;1.00;;;24.30;57.30;;;;;;5096430;28;20041;-70
2021/12/11 00:53:13;;;;;;;0.85;0.52;;;24.20;57.20;;;;;;5096387;28;20100;-70
2021/12/11 00:55:46;;;;;;;4.03;1.00;;;24.40;57.10;;;;;;5096447;28;20104;-71
2021/12/11 00:58:19;;;;;;;2.45;0.88;;;24.30;57.10;;;;;;5096432;28;20044;-71
2021/12/11 01:00:51;;;;;;;0.88;0.80;;;24.30;57.00;;;;;;5096350;28;20032;-70
2021/12/11 01:03:31;;;;;;;0.68;0.68;;;24.40;56.60;;;;;;5096516;28;20048;-70
2021/12/11 01:06:00;;;;;;;1.70;1.00;;;24.40;57.00;;;;;;5096217;28;20105;-70
2021/12/11 01:08:34;;;;;;;1.10;0.95;;;24.40;57.00;;;;;;5095924;28;20102;-70
2021/12/11 01:11:11;;;;;;;0.70;0.70;;;24.30;57.00;;;;;;5096271;28;20107;-71
2021/12/11 01:13:48;;;;;;;2.38;0.95;;;24.50;56.70;;;;;;5096178;28;20045;-71
2021/12/11 01:16:16;;;;;;;0.80;0.80;;;24.50;56.90;;;;;;5096573;28;20036;-71
2021/12/11 01:18:45;;;;;;;5.22;1.00;;;24.40;56.70;;;;;;5096553;28;20040;-71
2021/12/11 01:21:32;;;;;;;1.83;1.20;;;24.40;56.60;;;;;;5096194;28;20048;-70
2021/12/11 01:24:16;;;;;;;0.93;0.77;;;24.60;56.70;;;;;;5096246;28;20047;-70
2021/12/11 01:26:49;;;;;;;2.60;1.13;;;24.60;56.70;;;;;;5096065;28;20059;-71
2021/12/11 01:29:18;;;;;;;1.77;0.90;;;24.60;56.70;;;;;;5099364;28;20150;-70
2021/12/11 01:31:45;;;;;;;2.33;1.20;;;24.60;56.60;;;;;;5099895;28;20075;-71
2021/12/11 01:34:12;;;;;;;1.38;1.27;;;24.60;56.60;;;;;;5099903;28;20039;-70
2021/12/11 01:36:39;;;;;;;2.58;1.40;;;24.50;56.40;;;;;;5099628;28;20040;-71
2021/12/11 01:39:13;;;;;;;1.55;1.40;;;24.60;56.60;;;;;;5099165;28;20059;-71
2021/12/11 01:41:40;;;;;;;1.00;1.00;;;24.60;56.70;;;;;;5099803;28;20064;-70
2021/12/11 01:44:17;;;;;;;1.02;1.02;;;24.50;56.80;;;;;;5099526;28;20146;-71
2021/12/11 01:46:43;;;;;;;1.25;1.17;;;24.50;56.80;;;;;;5099601;28;20080;-71
2021/12/11 01:49:17;;;;;;;0.98;0.98;;;24.40;56.90;;;;;;5099290;28;20073;-70
2021/12/11 01:51:52;;;;;;;1.23;1.13;;;24.40;57.00;;;;;;5099612;28;20051;-71
2021/12/11 01:54:33;;;;;;;1.05;1.05;;;24.40;57.10;;;;;;5099413;28;20096;-70
2021/12/11 01:57:09;;;;;;;1.27;1.23;;;24.30;57.30;;;;;;5099195;28;20063;-70
2021/12/11 01:59:39;;;;;;;1.42;1.33;;;24.20;57.30;;;;;;5099458;28;20107;-71
2021/12/11 02:02:13;;;;;;;1.65;1.55;;;24.20;57.60;;;;;;5099446;28;20053;-70
2021/12/11 02:04:44;;;;;;;1.10;1.10;;;24.10;57.80;;;;;;5099241;28;20049;-71
2021/12/11 02:07:16;;;;;;;1.38;1.27;;;24.00;58.00;;;;;;5099200;28;20053;-70
2021/12/11 02:09:50;;;;;;;1.30;1.20;;;24.00;58.00;;;;;;5099300;28;20048;-71
2021/12/11 02:12:33;;;;;;;1.58;1.20;;;23.90;58.10;;;;;;5099220;28;20040;-71
2021/12/11 02:15:02;;;;;;;1.38;1.27;;;24.00;58.20;;;;;;5099207;28;20064;-72
2021/12/11 02:17:31;;;;;;;1.65;1.55;;;23.90;58.40;;;;;;5098897;28;20047;-71
2021/12/11 02:19:59;;;;;;;1.85;1.70;;;23.90;58.40;;;;;;5099062;28;20044;-71
2021/12/11 02:22:30;;;;;;;1.75;1.65;;;23.70;58.40;;;;;;5099013;28;20079;-72
2021/12/11 02:25:00;;;;;;;1.50;1.40;;;23.80;58.40;;;;;;5098892;28;20040;-72
2021/12/11 02:27:48;;;;;;;1.65;1.40;;;23.80;58.50;;;;;;5098839;28;20048;-70
2021/12/11 02:30:26;;;;;;;1.52;1.23;;;23.90;58.40;;;;;;5098708;28;20052;-73
2021/12/11 02:33:14;;;;;;;1.67;1.23;;;23.80;58.30;;;;;;5098742;28;20043;-72
2021/12/11 02:36:10;;;;;;;1.58;1.42;;;23.80;58.40;;;;;;5098030;28;20036;-72
2021/12/11 02:38:44;;;;;;;1.48;1.38;;;23.90;58.40;;;;;;5098021;28;20049;-70
2021/12/11 02:41:16;;;;;;;1.73;1.63;;;23.80;58.20;;;;;;5098765;28;20048;-70
2021/12/11 02:43:48;;;;;;;2.25;2.05;;;23.90;58.20;;;;;;5095410;28;20079;-70
2021/12/11 02:46:31;;;;;;;2.65;2.40;;;23.90;58.10;;;;;;5098498;28;20048;-70
2021/12/11 02:49:01;;;;;;;6.07;2.97;;;23.90;58.10;;;;;;5098335;28;20041;-70
2021/12/11 02:52:01;;;;;;;4.38;3.65;;;23.90;57.90;;;;;;5098411;28;20104;-70
2021/12/11 02:54:33;;;;;;;3.83;3.13;;;23.90;57.90;;;;;;5070271;28;20041;-70
2021/12/11 02:57:05;;;;;;;3.90;3.50;;;23.90;57.90;;;;;;5077473;28;20045;-70
2021/12/11 02:59:38;;;;;;;6.07;3.78;;;23.80;57.80;;;;;;5077869;28;20053;-70
2021/12/11 03:02:11;;;;;;;5.13;4.00;;;23.90;57.90;;;;;;5078191;28;20108;-70
2021/12/11 03:04:54;;;;;;;4.63;4.10;;;23.80;57.80;;;;;;5078076;28;20055;-72
2021/12/11 03:07:25;;;;;;;5.93;4.07;;;23.70;58.10;;;;;;5077916;28;20083;-72
2021/12/11 03:09:55;;;;;;;4.85;4.35;;;23.70;58.20;;;;;;5077913;28;20041;-72
2021/12/11 03:12:24;;;;;;;6.20;4.95;;;23.50;58.20;;;;;;5077914;28;20060;-72
2021/12/11 03:14:50;;;;;;;5.85;4.95;;;23.50;58.40;;;;;;5077701;28;20028;-72
2021/12/11 03:17:18;;;;;;;5.47;4.63;;;23.50;58.50;;;;;;5077945;28;20045;-72
2021/12/11 03:19:46;;;;;;;7.10;5.43;;;23.50;58.60;;;;;;5077657;28;20037;-73
2021/12/11 03:22:22;;;;;;;9.48;6.47;;;23.50;58.70;;;;;;5077585;28;20112;-72
2021/12/11 03:24:49;;;;;;;8.75;6.55;;;23.40;58.60;;;;;;5077683;28;20045;-72
2021/12/11 03:27:16;;;;;;;9.80;7.10;;;23.40;58.50;;;;;;5077624;28;20098;-72
2021/12/11 03:29:43;;;;;;;9.73;6.93;;;23.50;58.30;;;;;;5092474;28;20048;-72
2021/12/11 03:32:12;;;;;;;12.05;8.35;;;23.50;58.40;;;;;;5097640;28;20040;-72
2021/12/11 03:34:43;;;;;;;13.23;9.07;;;23.30;58.20;;;;;;5097365;28;20036;-72
2021/12/11 03:37:11;;;;;;;12.30;8.68;;;23.30;58.40;;;;;;5097578;28;20041;-72
2021/12/11 03:39:45;;;;;;;12.35;8.70;;;23.40;58.60;;;;;;5097380;28;20040;-72
2021/12/11 03:42:22;;;;;;;12.40;8.82;;;23.30;58.60;;;;;;5096809;28;20040;-72
2021/12/11 03:44:50;;;;;;;13.40;9.25;;;23.40;58.40;;;;;;5097463;28;20056;-72
2021/12/11 03:47:26;;;;;;;12.43;9.65;;;23.40;58.40;;;;;;5097432;28;20055;-72
2021/12/11 03:49:53;;;;;;;9.98;8.48;;;23.40;58.40;;;;;;5076429;28;20049;-72
2021/12/11 03:52:19;;;;;;;12.18;8.88;;;23.30;58.50;;;;;;5077177;28;20052;-72
2021/12/11 03:54:50;;;;;;;14.68;9.98;;;23.30;58.60;;;;;;5077227;28;20064;-72
2021/12/11 03:57:20;;;;;;;12.63;9.02;;;23.30;58.70;;;;;;5077011;28;20053;-72
2021/12/11 03:59:48;;;;;;;13.70;9.27;;;23.20;58.70;;;;;;5077044;28;20068;-72
2021/12/11 04:02:18;;;;;;;12.93;9.13;;;23.30;58.70;;;;;;5077026;28;20060;-72
2021/12/11 04:04:52;;;;;;;13.48;9.43;;;23.30;58.70;;;;;;5076982;28;20068;-72
2021/12/11 04:07:23;;;;;;;13.88;9.13;;;23.30;58.70;;;;;;5077017;28;20040;-72
2021/12/11 04:09:49;;;;;;;11.90;9.73;;;23.20;58.60;;;;;;5076662;28;20052;-72
2021/12/11 04:12:18;;;;;;;14.30;9.60;;;23.20;58.50;;;;;;5077030;28;20045;-72
2021/12/11 04:14:48;;;;;;;18.05;11.68;;;23.30;58.60;;;;;;5076779;28;20044;-72
2021/12/11 04:17:18;;;;;;;15.52;10.35;;;23.30;58.60;;;;;;5076805;28;20052;-72
2021/12/11 04:19:46;;;;;;;16.00;10.15;;;23.00;58.60;;;;;;5076716;28;20072;-72
2021/12/11 04:22:12;;;;;;;15.60;10.38;;;23.00;58.50;;;;;;5076825;28;20036;-72
2021/12/11 04:24:40;;;;;;;15.23;9.23;;;23.00;58.60;;;;;;5076505;28;20440;-72
2021/12/11 04:27:09;;;;;;;16.83;11.48;;;23.00;58.70;;;;;;5076673;28;20515;-71
2021/12/11 04:29:36;;;;;;;17.15;10.48;;;23.00;58.60;;;;;;5076373;28;20049;-72
2021/12/11 04:32:04;;;;;;;15.88;10.45;;;23.00;58.60;;;;;;5075873;28;20071;-72
2021/12/11 04:34:32;;;;;;;16.73;10.63;;;22.90;58.60;;;;;;5076557;28;20036;-72
2021/12/11 04:37:10;;;;;;;16.65;11.02;;;22.90;58.60;;;;;;5076661;28;20033;-72
2021/12/11 04:39:38;;;;;;;16.73;11.95;;;22.80;58.60;;;;;;5076425;28;20052;-72
2021/12/11 04:42:39;;;;;;;16.35;11.40;;;22.90;58.60;;;;;;5088739;28;20048;-72
2021/12/11 04:44:58;;;;;;;16.15;10.43;;;22.90;58.60;;;;;;5096255;28;20055;-72
2021/12/11 04:48:34;;;;;;;17.40;11.35;;;22.90;58.20;;;;;;5096654;28;20047;-72
2021/12/11 04:50:38;;;;;;;16.65;11.55;;;22.90;58.30;;;;;;5095882;28;20052;-72
2021/12/11 04:53:19;;;;;;;15.10;11.13;;;22.90;58.30;;;;;;5096586;28;20052;-72
2021/12/11 05:11:41;;;;;;;18.73;12.13;;;23.10;57.70;;;;;;5099758;28;20072;-72
2021/12/11 05:14:12;;;;;;;17.13;11.30;;;23.20;57.20;;;;;;5098070;28;20040;-72
2021/12/11 05:16:39;;;;;;;20.05;12.05;;;23.40;57.20;;;;;;5098962;28;20048;-72
2021/12/11 05:19:06;;;;;;;13.85;8.93;;;23.40;57.00;;;;;;5099371;28;20036;-72
2021/12/11 05:21:34;;;;;;;20.67;11.93;;;23.50;57.00;;;;;;5099344;28;20048;-72
2021/12/11 05:24:02;;;;;;;20.27;13.05;;;23.50;56.80;;;;;;5099353;28;20048;-73
2021/12/11 05:26:28;;;;;;;19.30;11.88;;;23.60;59.10;;;;;;5099423;28;20084;-72
2021/12/11 05:28:55;;;;;;;19.50;12.10;;;23.80;61.80;;;;;;5099108;28;20056;-70
2021/12/11 05:31:21;;;;;;;18.50;10.90;;;24.00;63.50;;;;;;5099242;28;20056;-71
2021/12/11 05:33:48;;;;;;;18.13;11.88;;;24.20;61.40;;;;;;5099007;28;20041;-69
2021/12/11 05:36:17;;;;;;;16.60;11.32;;;24.20;57.40;;;;;;5099299;28;20040;-70
2021/12/11 05:38:47;;;;;;;21.50;11.65;;;24.20;54.50;;;;;;5099199;28;20109;-72
2021/12/11 05:41:16;;;;;;;18.40;11.63;;;24.00;53.60;;;;;;5098991;28;20056;-71
2021/12/11 05:43:44;;;;;;;17.73;11.35;;;24.00;52.80;;;;;;5098993;28;20044;-72
2021/12/11 05:46:13;;;;;;;20.55;12.38;;;23.90;52.00;;;;;;5099213;28;20054;-71
2021/12/11 05:48:40;;;;;;;17.73;11.50;;;24.00;51.20;;;;;;5098533;28;20071;-72
2021/12/11 05:51:09;;;;;;;19.00;11.65;;;23.90;50.40;;;;;;5098445;28;20047;-72
2021/12/11 05:53:35;;;;;;;20.83;12.63;;;23.80;49.30;;;;;;5098875;28;20500;-71
2021/12/11 05:56:10;;;;;;;17.75;12.05;;;23.80;48.50;;;;;;5098540;28;20041;-72
2021/12/11 05:58:57;;;;;;;18.05;12.18;;;23.80;48.00;;;;;;5098832;28;20080;-74
2021/12/11 06:01:43;;;;;;;15.82;11.05;;;23.80;47.60;;;;;;5098478;28;20074;-73
2021/12/11 06:04:15;;;;;;;20.00;12.38;;;23.90;47.50;;;;;;5098593;28;20040;-75
2021/12/11 06:06:43;;;;;;;17.02;11.27;;;23.80;47.00;;;;;;5091184;28;20053;-72
2021/12/11 06:09:12;;;;;;;17.65;11.88;;;23.80;46.70;;;;;;5078221;28;20032;-72
2021/12/11 06:11:43;;;;;;;11.00;5.72;;;23.80;46.40;;;;;;5078364;28;20041;-71
2021/12/11 06:14:10;;;;;;;13.32;5.75;;;23.80;46.00;;;;;;5077620;28;20041;-71
2021/12/11 06:16:36;;;;;;;17.33;10.32;;;23.80;45.10;;;;;;5078336;28;20043;-72
2021/12/11 06:19:05;;;;;;;14.48;8.55;;;23.90;45.50;;;;;;5078072;28;20040;-72
2021/12/11 06:21:33;;;;;;;9.52;6.70;;;23.80;44.30;;;;;;5078083;28;20060;-74
2021/12/11 06:24:01;;;;;;;14.70;6.85;;;23.80;44.50;;;;;;5085526;28;20074;-73
2021/12/11 06:26:27;;;;;;;10.82;7.03;;;24.00;48.00;;;;;;5097733;28;20072;-73
2021/12/11 06:28:53;;;;;;;11.00;6.78;;;24.00;44.50;;;;;;5094930;28;20069;-74
2021/12/11 06:31:19;;;;;;;10.75;7.25;;;23.90;44.50;;;;;;5097446;28;20045;-73
2021/12/11 06:33:48;;;;;;;13.35;8.75;;;23.90;45.00;;;;;;5097241;28;20063;-73
2021/12/11 06:36:16;;;;;;;12.80;8.23;;;23.80;43.80;;;;;;5092442;28;20385;-73
2021/12/11 06:38:45;;;;;;;12.40;8.88;;;23.90;46.40;;;;;;5078614;28;20045;-70
2021/12/11 06:41:13;;;;;;;14.13;8.35;;;24.00;45.80;;;;;;5097591;28;20052;-70
2021/12/11 06:43:40;;;;;;;20.33;15.00;;;24.00;46.10;;;;;;5094793;28;20040;-71
2021/12/11 06:46:07;;;;;;;14.20;9.18;;;24.00;43.60;;;;;;5097459;28;20052;-70
2021/12/11 06:48:33;;;;;;;22.13;15.13;;;24.00;43.70;;;;;;5097125;28;20067;-70
2021/12/11 06:51:01;;;;;;;26.90;15.93;;;24.10;53.70;;;;;;5096937;28;20041;-71
2021/12/11 06:53:34;;;;;;;24.83;14.48;;;24.10;54.30;;;;;;5097298;28;20041;-72
2021/12/11 06:56:01;;;;;;;19.73;13.43;;;24.00;55.50;;;;;;5094916;28;20040;-71
2021/12/11 06:58:27;;;;;;;21.88;13.73;;;24.00;57.80;;;;;;5097041;28;20108;-72
2021/12/11 07:00:55;;;;;;;21.73;14.32;;;23.80;56.90;;;;;;5096916;28;20060;-71
2021/12/11 07:03:21;;;;;;;17.55;12.30;;;23.70;57.20;;;;;;5097450;28;20056;-69
2021/12/11 07:05:47;;;;;;;24.08;13.65;;;23.60;57.40;;;;;;5097214;28;20051;-71
2021/12/11 07:08:16;;;;;;;20.75;13.10;;;23.70;57.20;;;;;;5096932;28;20040;-70
2021/12/11 07:10:43;;;;;;;22.60;14.20;;;23.70;57.00;;;;;;5096854;28;20076;-70
2021/12/11 07:13:10;;;;;;;22.60;13.80;;;23.70;56.60;;;;;;5097307;28;20040;-70
2021/12/11 07:15:37;;;;;;;25.05;15.02;;;23.70;56.90;;;;;;5097125;28;20040;-69
2021/12/11 07:18:04;;;;;;;20.95;14.45;;;23.50;57.50;;;;;;5097442;28;20100;-70
2021/12/11 07:20:31;;;;;;;24.27;14.52;;;23.50;58.00;;;;;;5097035;28;20068;-70
2021/12/11 07:22:58;;;;;;;23.50;15.00;;;23.50;58.20;;;;;;5097208;28;20108;-72
2021/12/11 07:25:30;;;;;;;27.25;17.00;;;23.50;58.20;;;;;;5097039;28;20044;-71
2021/12/11 07:27:58;;;;;;;26.75;15.93;;;23.50;58.40;;;;;;5097147;28;21008;-71
2021/12/11 07:30:26;;;;;;;27.70;15.30;;;23.40;58.50;;;;;;5096898;28;20052;-74
2021/12/11 07:32:57;;;;;;;25.13;15.77;;;23.40;58.80;;;;;;5096974;28;20071;-74
2021/12/11 07:35:25;;;;;;;31.67;19.52;;;23.40;59.10;;;;;;5096860;28;20028;-73
2021/12/11 07:37:51;;;;;;;26.27;17.33;;;23.40;59.20;;;;;;5096611;28;20041;-73
2021/12/11 07:40:21;;;;;;;24.70;15.25;;;23.30;59.30;;;;;;5095904;28;20055;-73
2021/12/11 07:42:48;;;;;;;24.08;15.73;;;23.30;59.60;;;;;;5095970;28;20040;-71
2021/12/11 07:45:16;;;;;;;23.90;16.73;;;23.20;59.60;;;;;;5096207;28;20047;-73
2021/12/11 07:47:42;;;;;;;25.77;16.02;;;23.30;59.70;;;;;;5096150;28;20046;-69
2021/12/11 07:50:11;;;;;;;21.05;13.68;;;23.20;59.70;;;;;;5096028;28;20051;-70
2021/12/11 07:52:37;;;;;;;22.55;14.80;;;23.10;59.90;;;;;;5096475;28;20032;-70
2021/12/11 07:55:04;;;;;;;19.67;13.23;;;23.20;59.70;;;;;;5096555;28;20045;-70
2021/12/11 07:57:30;;;;;;;29.02;16.48;;;23.10;60.00;;;;;;5096614;28;20044;-70
2021/12/11 07:59:57;;;;;;;21.92;13.18;;;23.20;60.10;;;;;;5096471;28;20048;-70
2021/12/11 08:02:23;;;;;;;21.02;13.43;;;23.10;60.30;;;;;;5096055;28;20052;-69
2021/12/11 08:04:49;;;;;;;19.52;14.30;;;23.10;59.70;;;;;;5096350;28;20707;-69
2021/12/11 08:07:15;;;;;;;20.65;13.27;;;23.00;59.80;;;;;;5096424;28;20068;-69
2021/12/11 08:09:41;;;;;;;18.17;13.02;;;23.00;59.70;;;;;;5096176;28;20058;-70
2021/12/11 08:12:08;;;;;;;19.83;13.48;;;23.20;59.60;;;;;;5096177;28;20041;-70
2021/12/11 08:14:35;;;;;;;18.50;12.65;;;23.10;59.80;;;;;;5096052;28;20058;-70
2021/12/11 08:17:05;;;;;;;22.45;13.02;;;23.20;59.40;;;;;;5096314;28;20044;-71
2021/12/11 08:19:33;;;;;;;18.75;11.55;;;23.10;59.60;;;;;;5096405;28;20047;-69
2021/12/11 08:22:01;;;;;;;19.50;12.43;;;23.20;59.70;;;;;;5095283;28;20052;-71
2021/12/11 08:24:29;;;;;;;19.10;12.60;;;23.30;59.70;;;;;;5075150;28;20036;-72
2021/12/11 08:27:01;;;;;;;20.75;13.32;;;23.20;59.80;;;;;;5076064;28;20049;-72
2021/12/11 08:29:28;;;;;;;19.95;12.48;;;23.30;60.00;;;;;;5075427;28;20113;-72
2021/12/11 08:31:58;;;;;;;19.17;12.13;;;23.20;59.80;;;;;;5074916;28;20025;-73
2021/12/11 08:34:25;;;;;;;16.38;12.40;;;23.20;59.70;;;;;;5075614;28;20044;-72
2021/12/11 08:36:52;;;;;;;17.73;11.32;;;23.10;60.00;;;;;;5075197;28;20071;-72
2021/12/11 08:39:20;;;;;;;15.15;9.85;;;23.20;59.80;;;;;;5075513;28;20052;-72
2021/12/11 08:41:48;;;;;;;16.63;11.73;;;23.30;59.40;;;;;;5075417;28;20063;-72
2021/12/11 08:44:17;;;;;;;14.52;10.38;;;23.40;59.70;;;;;;5075524;28;20055;-72
2021/12/11 08:46:52;;;;;;;19.70;12.63;;;23.50;60.90;;;;;;5075844;28;20060;-71
2021/12/11 08:49:24;;;;;;;19.35;12.55;;;23.70;66.80;;;;;;5075629;28;20049;-71
2021/12/11 08:51:56;;;;;;;19.52;13.38;;;24.30;70.00;;;;;;5077614;28;20075;-71
2021/12/11 08:54:25;;;;;;;11.05;6.63;;;24.90;71.60;;;;;;5095368;28;20049;-73
2021/12/11 08:56:52;;;;;;;6.20;5.22;;;25.30;63.00;;;;;;5095381;28;20119;-73
2021/12/11 08:59:21;;;;;;;13.40;7.03;;;25.00;49.90;;;;;;5095500;28;20049;-72
2021/12/11 09:02:10;;;;;;;15.38;6.68;;;24.80;50.60;;;;;;5095406;28;20083;-75
2021/12/11 09:04:43;;;;;;;12.60;7.03;;;24.80;52.20;;;;;;5094878;28;20070;-73
2021/12/11 09:07:19;;;;;;;8.35;5.93;;;24.80;48.50;;;;;;5094785;28;20067;-73
2021/12/11 09:10:05;;;;;;;10.30;6.55;;;24.80;47.70;;;;;;5094873;28;20055;-73
2021/12/11 09:12:45;;;;;;;10.52;6.28;;;24.80;51.00;;;;;;5095035;28;20064;-74
2021/12/11 09:15:24;;;;;;;11.70;6.70;;;24.80;54.30;;;;;;5095161;28;20041;-71
2021/12/11 09:17:58;;;;;;;11.57;6.70;;;24.80;47.40;;;;;;5094864;28;20044;-73
2021/12/11 09:20:49;;;;;;;8.77;5.65;;;24.70;45.00;;;;;;5095123;28;20065;-73
2021/12/11 09:23:25;;;;;;;11.45;6.78;;;24.70;47.40;;;;;;5093958;28;20051;-72
2021/12/11 09:25:58;;;;;;;13.50;6.38;;;24.80;48.70;;;;;;5093995;28;20051;-72
2021/12/11 09:28:30;;;;;;;14.75;5.93;;;24.70;47.00;;;;;;5093693;28;20059;-72
2021/12/11 09:31:18;;;;;;;15.43;6.70;;;24.70;45.80;;;;;;5094003;28;20041;-72
2021/12/11 09:33:54;;;;;;;21.50;7.22;;;24.60;46.30;;;;;;5093833;28;20037;-73
2021/12/11 09:36:30;;;;;;;18.15;7.55;;;24.60;44.00;;;;;;5094054;28;20057;-73
2021/12/11 09:39:09;;;;;;;33.95;10.35;;;24.70;46.40;;;;;;5092929;28;20073;-73
2021/12/11 09:41:36;;;;;;;164.20;54.67;;;24.80;43.20;;;;;;5094627;28;20067;-70
2021/12/11 09:44:15;;;;;;;27.40;10.23;;;24.60;44.20;;;;;;5095351;28;20041;-74
2021/12/11 09:46:43;;;;;;;18.95;10.18;;;24.70;44.30;;;;;;5094491;28;20047;-72
2021/12/11 09:49:14;;;;;;;102.43;28.27;;;24.60;44.10;;;;;;5096061;28;20032;-73
2021/12/11 09:51:45;;;;;;;17.90;7.47;;;24.70;47.30;;;;;;5098799;28;20068;-73
2021/12/11 09:54:16;;;;;;;15.15;7.90;;;24.80;44.40;;;;;;5097926;28;20040;-73
2021/12/11 09:56:47;;;;;;;14.50;7.40;;;24.80;44.10;;;;;;5096817;28;20024;-73
2021/12/11 09:59:16;;;;;;;9.43;6.90;;;24.60;43.00;;;;;;5098803;28;20044;-74
2021/12/11 10:01:45;;;;;;;17.75;11.18;;;24.70;45.70;;;;;;5098310;28;20047;-71
2021/12/11 10:04:17;;;;;;;16.70;11.20;;;24.80;49.40;;;;;;5098417;28;20052;-71
2021/12/11 10:09:23;;;;;;;19.92;12.60;;;24.80;52.30;;;;;;5097578;28;20130;-71
2021/12/11 10:12:04;;;;;;;18.88;11.25;;;24.70;52.70;;;;;;5098502;28;20041;-72
2021/12/11 10:14:59;;;;;;;19.10;12.25;;;24.70;53.20;;;;;;5098438;28;20074;-71
2021/12/11 10:17:36;;;;;;;17.70;10.77;;;24.80;53.40;;;;;;5098547;28;20047;-74
2021/12/11 10:20:11;;;;;;;2.33;2.13;;;24.60;53.60;;;;;;5098572;28;20095;-75
2021/12/11 10:22:39;;;;;;;3.75;2.75;;;24.70;54.40;;;;;;5098178;28;20087;-74
2021/12/11 10:25:11;;;;;;;11.80;6.88;;;24.60;49.90;;;;;;5098344;28;20040;-72
2021/12/11 10:27:38;;;;;;;7.05;4.60;;;24.50;47.80;;;;;;5098367;28;20104;-72
2021/12/11 10:30:07;;;;;;;5.90;3.78;;;24.60;46.10;;;;;;5097196;28;20052;-73
2021/12/11 10:32:34;;;;;;;9.50;5.63;;;24.50;44.10;;;;;;5098124;28;20066;-73
2021/12/11 10:35:10;;;;;;;3.63;2.75;;;24.50;44.80;;;;;;5080334;28;20036;-74
2021/12/11 10:37:37;;;;;;;5.50;4.50;;;24.50;46.90;;;;;;5098151;28;20054;-74
2021/12/11 10:40:14;;;;;;;8.20;4.53;;;24.50;49.90;;;;;;5097213;28;20052;-72
2021/12/11 10:42:42;;;;;;;15.85;9.90;;;24.60;52.30;;;;;;5097190;28;20040;-73
2021/12/11 10:45:13;;;;;;;12.85;8.68;;;24.80;48.60;;;;;;5080758;28;20044;-73
2021/12/11 10:47:44;;;;;;;14.40;9.15;;;24.70;48.50;;;;;;5097903;28;20048;-71
2021/12/11 10:50:16;;;;;;;16.25;9.30;;;24.60;47.40;;;;;;5097282;28;20048;-71
2021/12/11 10:52:43;;;;;;;15.23;9.10;;;24.60;46.40;;;;;;5096515;28;20055;-72
2021/12/11 10:55:14;;;;;;;11.98;8.82;;;24.50;44.50;;;;;;5097700;28;20049;-72
2021/12/11 10:57:40;;;;;;;13.98;9.40;;;24.50;44.70;;;;;;5097678;28;20096;-72
2021/12/11 11:00:17;;;;;;;12.13;9.30;;;24.50;45.00;;;;;;5097098;28;20076;-72
2021/12/11 11:02:44;;;;;;;13.15;9.80;;;24.50;44.70;;;;;;5097311;28;20047;-73
2021/12/11 11:05:16;;;;;;;13.27;8.75;;;24.50;44.70;;;;;;5096931;28;20071;-72
2021/12/11 11:07:44;;;;;;;14.32;9.20;;;24.90;50.10;;;;;;5096845;28;20048;-68
2021/12/11 11:10:22;;;;;;;14.40;8.40;;;25.30;58.00;;;;;;5097244;28;20049;-68
2021/12/11 11:12:49;;;;;;;10.65;7.78;;;25.50;50.20;;;;;;5097430;28;20040;-68
2021/12/11 11:15:21;;;;;;;10.18;7.00;;;25.30;41.70;;;;;;5096742;28;20044;-68
2021/12/11 11:17:48;;;;;;;9.32;7.10;;;25.10;41.20;;;;;;5097345;28;20051;-69
2021/12/11 11:20:20;;;;;;;9.88;6.80;;;24.90;40.90;;;;;;5097258;28;20052;-68
2021/12/11 11:22:47;;;;;;;11.57;7.13;;;24.90;44.50;;;;;;5097090;28;20060;-70
2021/12/11 11:25:19;;;;;;;11.00;6.72;;;25.00;45.50;;;;;;5095796;28;20052;-70
2021/12/11 11:27:47;;;;;;;11.30;6.28;;;24.90;44.40;;;;;;5083407;28;20066;-68
2021/12/11 11:30:20;;;;;;;7.82;5.63;;;24.90;40.80;;;;;;5096488;28;20040;-68
2021/12/11 11:32:47;;;;;;;12.55;7.00;;;24.80;40.20;;;;;;5079067;28;20075;-70
2021/12/11 11:35:18;;;;;;;10.82;6.97;;;24.80;40.20;;;;;;5095807;28;20059;-71
2021/12/11 11:37:47;;;;;;;9.15;6.25;;;24.60;40.20;;;;;;5096900;28;20041;-70
2021/12/11 11:40:19;;;;;;;18.23;9.85;;;24.60;40.30;;;;;;5096589;28;20053;-71
2021/12/11 11:42:46;;;;;;;16.50;10.83;;;24.70;46.30;;;;;;5095913;28;20040;-68
2021/12/11 11:45:13;;;;;;;15.77;11.00;;;24.60;47.50;;;;;;5095063;28;20078;-69
2021/12/11 11:47:40;;;;;;;18.58;11.35;;;24.60;48.10;;;;;;5095691;28;20041;-68
2021/12/11 11:50:09;;;;;;;15.18;10.75;;;24.60;48.40;;;;;;5096543;28;20131;-69
2021/12/11 11:52:35;;;;;;;15.00;11.20;;;24.60;48.70;;;;;;5096125;28;20037;-70
2021/12/11 11:55:11;;;;;;;17.17;11.30;;;24.60;49.00;;;;;;5095675;28;20047;-70
2021/12/11 11:57:41;;;;;;;16.48;10.90;;;24.50;49.50;;;;;;5095735;28;20060;-70
2021/12/11 12:00:13;;;;;;;20.63;13.23;;;24.60;50.00;;;;;;5096036;28;20051;-70
2021/12/11 12:02:39;;;;;;;17.33;11.88;;;24.50;50.20;;;;;;5096270;28;20044;-70
2021/12/11 12:05:09;;;;;;;18.08;11.75;;;24.40;50.40;;;;;;5096208;28;20052;-70
2021/12/11 12:07:35;;;;;;;17.27;11.32;;;24.30;50.80;;;;;;5096292;28;20066;-69
2021/12/11 12:10:09;;;;;;;16.40;10.27;;;24.40;50.90;;;;;;5095457;28;20076;-69
2021/12/11 12:12:36;;;;;;;17.63;11.20;;;24.50;51.10;;;;;;5095470;28;20032;-72
2021/12/11 12:15:11;;;;;;;15.00;10.75;;;24.40;50.90;;;;;;5095233;28;20040;-70
2021/12/11 12:17:37;;;;;;;17.73;12.75;;;24.60;51.20;;;;;;5078789;28;20036;-72
2021/12/11 12:20:08;;;;;;;20.02;13.02;;;24.40;51.20;;;;;;5095555;28;20044;-70
2021/12/11 12:22:35;;;;;;;17.15;11.32;;;24.40;51.40;;;;;;5095909;28;20041;-71
2021/12/11 12:25:04;;;;;;;20.95;11.73;;;24.30;51.70;;;;;;5095885;28;20049;-71
2021/12/11 12:27:33;;;;;;;16.13;10.90;;;24.40;51.70;;;;;;5095807;28;20045;-71
2021/12/11 12:30:03;;;;;;;18.95;12.63;;;24.30;51.90;;;;;;5095708;28;20052;-72
2021/12/11 12:32:36;;;;;;;16.67;11.70;;;24.30;52.20;;;;;;5095964;28;20080;-70
2021/12/11 12:35:08;;;;;;;17.35;11.00;;;24.20;52.30;;;;;;5096200;28;20083;-70
2021/12/11 12:37:35;;;;;;;17.63;11.80;;;24.40;52.40;;;;;;5097062;28;20035;-71
2021/12/11 12:40:08;;;;;;;19.52;12.88;;;24.40;52.20;;;;;;5095583;28;20050;-70
2021/12/11 12:42:40;;;;;;;16.27;11.25;;;24.40;52.40;;;;;;5095961;28;20067;-72
2021/12/11 12:45:16;;;;;;;;;;;24.40;52.90;;;;;;5095946;28;20045;-71
2021/12/11 12:47:48;;;;;;;20.30;11.80;;;24.30;52.90;;;;;;5095296;28;19904;-71
2021/12/11 12:50:26;;;;;;;16.75;11.23;;;24.10;53.20;;;;;;5095006;28;20799;-71
2021/12/11 12:52:52;;;;;;;21.00;12.32;;;24.20;53.30;;;;;;5095823;28;20044;-71
2021/12/11 12:55:39;;;;;;;17.42;10.82;;;24.20;54.00;;;;;;5061828;28;20040;-71
2021/12/11 12:58:13;;;;;;;16.67;11.82;;;24.30;54.20;;;;;;5095072;28;20037;-72
2021/12/11 13:00:47;;;;;;;17.25;11.60;;;24.30;53.90;;;;;;5078245;28;20071;-73
2021/12/11 13:03:21;;;;;;;13.85;10.15;;;24.20;53.80;;;;;;5095849;28;20047;-73
2021/12/11 13:05:55;;;;;;;15.77;11.30;;;24.20;53.90;;;;;;5094891;28;20048;-72
2021/12/11 13:08:34;;;;;;;16.00;10.52;;;24.20;54.00;;;;;;5094434;28;20029;-72
2021/12/11 13:11:20;;;;;;;17.70;11.15;;;24.20;54.10;;;;;;5095164;28;20066;-72
2021/12/11 13:13:48;;;;;;;13.75;9.88;;;24.20;54.20;;;;;;5095222;28;20055;-72